Mustafa Dayi — TCZF2 — position and weather

sailwx.info

Track history (hours):
 
Tides and Currents Weather Stations Pressure Air Temp Water Temp Dewpoint Dewpoint Depression Visibility Wind Speed Wind Dir Waves Ship Positions

Mustafa Dayi

Last reported at 2014-Sep-18 11:06 UTC. Time now 2014-Sep-18 21:46 UTC.
Position N 36°00' W 005°25'.

Length 183 m; draft 8.4 m.

Type: Ship. MMSI: 271042433.

Date/timePositionNaut miles runAvg speedWind from/ knotsBaromVisibWave heightAir tempDewpointWater temp
2014-Sep-18 11:06N 36°00' W 005°25'611.7
2014-Sep-18 10:33N 36°02' W 005°17'29013.2
2014-Sep-17 12:31N 37°00' E 000°37'1413.5
2014-Sep-17 11:27N 37°03' E 000°54'1213.3
2014-Sep-17 10:33N 37°06' E 001°09'2013.8
2014-Sep-17 09:05N 37°11' E 001°33'814.6
2014-Sep-17 08:33N 37°13' E 001°43'1614.6
2014-Sep-17 07:27N 37°16' E 002°03'1314.4
2014-Sep-17 06:33N 37°19' E 002°19'1514.5
2014-Sep-17 05:33N 37°22' E 002°36'3733.8
2014-Sep-17 04:28N 37°33' E 003°21'10112.1
2014-Sep-16 20:09N 37°37' E 005°28'5 8.9
2014-Sep-16 19:33N 37°37' E 005°35'1615.3
2014-Sep-16 18:30N 37°37' E 005°55'1615.4
2014-Sep-16 17:28N 37°38' E 006°15'7514.7
2014-Sep-16 12:24N 37°42' E 007°49'1214.5
2014-Sep-16 11:32N 37°42' E 008°05'1514.2
2014-Sep-16 10:31N 37°42' E 008°23'3314.0
2014-Sep-16 08:11N 37°43' E 009°04'913.8
2014-Sep-16 07:32N 37°42' E 009°16'1413.9
2014-Sep-16 06:33N 37°42' E 009°33'1413.4
2014-Sep-16 05:28N 37°41' E 009°51'1213.4
2014-Sep-16 04:33N 37°40' E 010°07'1413.5
2014-Sep-16 03:33N 37°37' E 010°23'1413.8
2014-Sep-16 02:33N 37°34' E 010°40'1414.1
2014-Sep-16 01:33N 37°31' E 010°58'8614.3
2014-Sep-15 19:32N 36°54' E 012°36'1414.9
2014-Sep-15 18:33N 36°50' E 012°53'1514.6
2014-Sep-15 17:34N 36°46' E 013°10'1414.1
2014-Sep-15 16:33N 36°42' E 013°27'1413.6
2014-Sep-15 15:33N 36°37' E 013°43'1313.4
2014-Sep-15 14:33N 36°33' E 013°59'1313.5
2014-Sep-15 13:34N 36°29' E 014°15'1414.4
2014-Sep-15 12:33N 36°25' E 014°32'1414.3
2014-Sep-15 11:34N 36°24' E 014°50'1414.4
2014-Sep-15 10:33N 36°23' E 015°08'40014.1
2014-Sep-14 06:11N 36°26' E 023°25'1114.9
2014-Sep-14 05:27N 36°33' E 023°36'3015.0
2014-Sep-14 03:27N 36°49' E 024°07'1415.3
2014-Sep-14 02:33N 36°57' E 024°21'1514.9
2014-Sep-14 01:33N 37°06' E 024°36'5614.1
2014-Sep-13 21:33N 37°45' E 025°27'1514.9
2014-Sep-13 20:33N 37°60' E 025°32'1514.7
2014-Sep-13 19:32N 38°14' E 025°37'1414.6
2014-Sep-13 18:33N 38°28' E 025°42'83 4.1
2014-Sep-12 22:10N 39°51' E 025°50'15813.6
2014-Sep-12 10:34N 40°44' E 029°06'12 0.5
2014-Sep-11 12:33N 40°43' E 029°21'1211.9
2014-Sep-11 11:34N 40°45' E 029°06'1413.8
2014-Sep-11 10:34N 40°48' E 028°48'11 2.0
2014-Sep-11 05:04N 40°58' E 028°41'0 0.0
2014-Sep-11 04:28N 40°58' E 028°41'0 0.0
2014-Sep-11 03:33N 40°58' E 028°41'0 0.0
2014-Sep-11 00:32N 40°58' E 028°41'138 3.4
2014-Sep-09 07:22N 39°57' E 025°58'1112.9
2014-Sep-09 06:30N 39°47' E 025°51'13114.0
2014-Sep-08 21:07N 37°36' E 025°50'813.7
2014-Sep-08 20:33N 37°29' E 025°54'1414.0
2014-Sep-08 19:33N 37°21' E 026°09'1514.6
2014-Sep-08 18:33N 37°12' E 026°24'5513.0
2014-Sep-08 14:17N 36°22' E 026°52'1114.1
2014-Sep-08 13:31N 36°14' E 027°02'  
Track history (hours):
 
Tides and Currents Weather Stations Pressure Air Temp Water Temp Dewpoint Dewpoint Depression Visibility Wind Speed Wind Dir Waves Ship Positions

Mustafa Dayi

Last reported at 2014-Sep-18 11:06 UTC. Time now 2014-Sep-18 21:46 UTC.
Position N 36°00' W 005°25'.

Length 183 m; draft 8.4 m.

Type: Ship. MMSI: 271042433.

Date/timePositionNaut miles runAvg speedWind from/ knotsBaromVisibWave heightAir tempDewpointWater temp
2014-Sep-18 11:06N 36°00' W 005°25'611.7
2014-Sep-18 10:33N 36°02' W 005°17'29013.2
2014-Sep-17 12:31N 37°00' E 000°37'1413.5
2014-Sep-17 11:27N 37°03' E 000°54'1213.3
2014-Sep-17 10:33N 37°06' E 001°09'2013.8
2014-Sep-17 09:05N 37°11' E 001°33'814.6
2014-Sep-17 08:33N 37°13' E 001°43'1614.6
2014-Sep-17 07:27N 37°16' E 002°03'1314.4
2014-Sep-17 06:33N 37°19' E 002°19'1514.5
2014-Sep-17 05:33N 37°22' E 002°36'3733.8
2014-Sep-17 04:28N 37°33' E 003°21'10112.1
2014-Sep-16 20:09N 37°37' E 005°28'5 8.9
2014-Sep-16 19:33N 37°37' E 005°35'1615.3
2014-Sep-16 18:30N 37°37' E 005°55'1615.4
2014-Sep-16 17:28N 37°38' E 006°15'7514.7
2014-Sep-16 12:24N 37°42' E 007°49'1214.5
2014-Sep-16 11:32N 37°42' E 008°05'1514.2
2014-Sep-16 10:31N 37°42' E 008°23'3314.0
2014-Sep-16 08:11N 37°43' E 009°04'913.8
2014-Sep-16 07:32N 37°42' E 009°16'1413.9
2014-Sep-16 06:33N 37°42' E 009°33'1413.4
2014-Sep-16 05:28N 37°41' E 009°51'1213.4
2014-Sep-16 04:33N 37°40' E 010°07'1413.5
2014-Sep-16 03:33N 37°37' E 010°23'1413.8
2014-Sep-16 02:33N 37°34' E 010°40'1414.1
2014-Sep-16 01:33N 37°31' E 010°58'8614.3
2014-Sep-15 19:32N 36°54' E 012°36'1414.9
2014-Sep-15 18:33N 36°50' E 012°53'1514.6
2014-Sep-15 17:34N 36°46' E 013°10'1414.1
2014-Sep-15 16:33N 36°42' E 013°27'1413.6
2014-Sep-15 15:33N 36°37' E 013°43'1313.4
2014-Sep-15 14:33N 36°33' E 013°59'1313.5
2014-Sep-15 13:34N 36°29' E 014°15'1414.4
2014-Sep-15 12:33N 36°25' E 014°32'1414.3
2014-Sep-15 11:34N 36°24' E 014°50'1414.4
2014-Sep-15 10:33N 36°23' E 015°08'40014.1
2014-Sep-14 06:11N 36°26' E 023°25'1114.9
2014-Sep-14 05:27N 36°33' E 023°36'3015.0
2014-Sep-14 03:27N 36°49' E 024°07'1415.3
2014-Sep-14 02:33N 36°57' E 024°21'1514.9
2014-Sep-14 01:33N 37°06' E 024°36'5614.1
2014-Sep-13 21:33N 37°45' E 025°27'1514.9
2014-Sep-13 20:33N 37°60' E 025°32'1514.7
2014-Sep-13 19:32N 38°14' E 025°37'1414.6
2014-Sep-13 18:33N 38°28' E 025°42'83 4.1
2014-Sep-12 22:10N 39°51' E 025°50'15813.6
2014-Sep-12 10:34N 40°44' E 029°06'12 0.5
2014-Sep-11 12:33N 40°43' E 029°21'1211.9
2014-Sep-11 11:34N 40°45' E 029°06'1413.8
2014-Sep-11 10:34N 40°48' E 028°48'11 2.0
2014-Sep-11 05:04N 40°58' E 028°41'0 0.0
2014-Sep-11 04:28N 40°58' E 028°41'0 0.0
2014-Sep-11 03:33N 40°58' E 028°41'0 0.0
2014-Sep-11 00:32N 40°58' E 028°41'138 3.4
2014-Sep-09 07:22N 39°57' E 025°58'1112.9
2014-Sep-09 06:30N 39°47' E 025°51'13114.0
2014-Sep-08 21:07N 37°36' E 025°50'813.7
2014-Sep-08 20:33N 37°29' E 025°54'1414.0
2014-Sep-08 19:33N 37°21' E 026°09'1514.6
2014-Sep-08 18:33N 37°12' E 026°24'5513.0
2014-Sep-08 14:17N 36°22' E 026°52'1114.1
2014-Sep-08 13:31N 36°14' E 027°02'  

Dump ship's entire track history